Weather at Mosfili helipad

Public forecast

Using degrees Celsius for public forecast. Weather courtesy of forecast.io.

Closest aviation weather report (METAR) to Mosfili helipad

Closest report is Paphos International Airport, 28.8 nm (53.4 km) SSW.

2024/05/25 10:00 (retrieved 17 minutes ago)

LCPH 251000Z 26012KT 250V320 9999 FEW030 26/19 Q1009 NOSIG

Closest aviation forecast (TAF) to Mosfili helipad

Closest forecast is Paphos International Airport, 28.8 nm (53.4 km) SSW.

2024/05/25 06:30 (retrieved 4 hours ago)

TAF LCPH 250530Z 2506/2606 35007KT 9999 FEW020 BECMG 2506/2510 29015KT BECMG 2515/2519 35007KT